Pagrindinis puslapis
METAR-TAF:

METAR-TAF

Oro uostai :

Anchelesas, Filipinai

platuma: 15-11N, ilguma: 120-33E, Aukštis: 148 m

Dabartinis oras

Ataskaita buvo paskelbta 18 minutes, ne 20:00 UTC
Vėjas 4 kt iš Pietų
Temperatūra 24°C
Drėgmė 94%
Slėgis 1007 hPa
Matomumas: 6000 m
Išsisklaidę debesys ne aukštis 2000 ft
Apsiniaukę ne aukštis 10000 ft

METAR: RPLC 202000Z 18004KT 6000 SCT020 OVC100 24/23 Q1007 NOSIG RMK A2974

Laikas: 04:18 (20:18 UTC)

Prognozė

Ataskaita buvo paskelbta 3 valandos ir 18 minutes, ne 17:00 UTC
Prognozė galioja nuo 20 metu 18 UTC su 21 metu 24 UTC
Vėjas 6 kt iš Pietų/Pietvakarių
Matomumas: 8000 m
Išsisklaidę debesys ne aukštis 2000 ft
Apsiniaukę ne aukštis 10000 ft
Laikinai
nuo 20 metu 18 UTC su 20 metu 24 UTC
Vėjas 5 kt iš Pietvakarių
Matomumas: 5000 m
Išsisklaidę debesys ne aukštis 2000 ft
Apsiniaukę ne aukštis 9000 ft
lietus

TAF: RPLC 201700Z 2018/2124 20006KT 8000 SCT020 OVC100 TX31/2106Z TN24/2022Z TEMPO 2018/2024 22005KT 5000 -RA SCT020 OVC090

Orai ataskaitas ir orų prognozės (METAR, TAF).

turimą stotys yra geltonos ir raudonos taškus žemėlapyje.

Perkelti pele per norėdami pamatyti stoties vardą.

Tada spustelėkite, norėdami matyti oro stebėjimo ir prognozės.

Norėdami pakeisti žemėlapį: spustelėkite ant žalios mygtukų su juodo kryžiaus žemyn,; žalią mygtuką su brūkšneliu, jei norite nutolinti; arba žalių rodyklių gretimoms žemėlapius.


METAR-TAF: